Time;durP1;ratioP1;P1;durP2;ratioP2;P2;SDS_P1;SDS_P2;PMS_P1;PMS_P2;Temp;Humidity;BMP_temperature;BMP_pressure;BME280_temperature;BME280_humidity;BME280_pressure;Samples;Min_cycle;Max_cycle;Signal;HPM_P1;HPM_P2
2022/12/20 00:00:23;;;;;;;7.95;3.78;;;9.40;99.90;;;;;;5053954;28;20048;-26
2022/12/20 00:02:49;;;;;;;5.22;3.45;;;9.40;99.90;;;;;;5053772;28;20092;-26
2022/12/20 00:05:14;;;;;;;6.40;3.08;;;9.40;99.90;;;;;;5054147;28;20076;-26
2022/12/20 00:07:40;;;;;;;8.10;3.35;;;9.40;99.90;;;;;;5036561;28;20119;-27
2022/12/20 00:10:06;;;;;;;5.28;3.45;;;9.40;99.90;;;;;;5036312;28;20041;-26
2022/12/20 00:12:32;;;;;;;13.27;3.53;;;9.40;99.90;;;;;;5054060;28;20131;-26
2022/12/20 00:14:58;;;;;;;5.93;3.15;;;9.40;99.90;;;;;;5054201;28;20076;-26
2022/12/20 00:17:24;;;;;;;9.40;3.35;;;9.40;99.90;;;;;;5054003;28;20061;-26
2022/12/20 00:19:49;;;;;;;6.70;3.88;;;9.40;99.90;;;;;;5035698;28;20049;-26
2022/12/20 00:22:15;;;;;;;7.28;4.32;;;9.50;99.90;;;;;;5053595;28;20543;-26
2022/12/20 00:24:41;;;;;;;7.07;3.63;;;9.50;99.90;;;;;;5053273;28;20048;-26
2022/12/20 00:27:07;;;;;;;5.53;3.20;;;9.50;99.90;;;;;;5053599;28;20053;-26
2022/12/20 00:29:34;;;;;;;5.22;2.83;;;9.70;99.90;;;;;;5053560;28;20119;-26
2022/12/20 00:31:59;;;;;;;4.50;2.90;;;9.70;99.90;;;;;;5054085;28;20375;-26
2022/12/20 00:34:25;;;;;;;7.43;3.20;;;9.80;99.90;;;;;;5053776;28;20041;-26
2022/12/20 00:36:51;;;;;;;6.63;3.00;;;9.90;99.90;;;;;;5019848;28;20048;-26
2022/12/20 00:39:16;;;;;;;7.45;2.92;;;9.80;99.90;;;;;;5053434;28;20048;-26
2022/12/20 00:41:42;;;;;;;4.53;2.40;;;9.80;99.90;;;;;;5053891;28;20059;-26
2022/12/20 00:44:08;;;;;;;3.97;2.60;;;9.70;99.90;;;;;;5053388;28;20542;-26
2022/12/20 00:46:34;;;;;;;5.53;2.70;;;9.70;99.90;;;;;;5019415;28;20048;-26
2022/12/20 00:49:00;;;;;;;6.80;3.53;;;9.70;99.90;;;;;;5053637;28;20041;-26
2022/12/20 00:51:28;;;;;;;4.85;2.80;;;9.70;99.90;;;;;;5057549;28;20059;-26
2022/12/20 00:53:54;;;;;;;7.57;2.95;;;9.60;99.90;;;;;;5039797;28;20045;-26
2022/12/20 00:56:20;;;;;;;4.20;2.78;;;9.60;99.90;;;;;;5039614;28;20049;-26
2022/12/20 00:58:47;;;;;;;6.05;2.63;;;9.60;99.90;;;;;;5040012;28;20433;-26
2022/12/20 01:01:20;;;;;;;5.53;2.53;;;9.60;99.90;;;;;;5057321;28;20493;-26
2022/12/20 01:03:46;;;;;;;6.05;3.33;;;9.50;99.90;;;;;;5057530;28;20041;-27
2022/12/20 01:06:12;;;;;;;6.88;2.83;;;9.50;99.90;;;;;;5057000;28;20056;-26
2022/12/20 01:08:38;;;;;;;5.20;2.85;;;9.50;99.90;;;;;;5040198;28;20076;-26
2022/12/20 01:11:13;;;;;;;8.07;3.30;;;9.50;99.90;;;;;;5057124;28;20399;-26
2022/12/20 01:13:43;;;;;;;5.45;1.95;;;9.50;99.90;;;;;;5057724;28;20107;-26
2022/12/20 01:16:12;;;;;;;4.70;2.50;;;9.50;99.90;;;;;;5039223;28;20448;-26
2022/12/20 01:18:38;;;;;;;4.88;2.42;;;9.50;99.90;;;;;;5056665;28;20587;-26
2022/12/20 01:21:07;;;;;;;2.90;1.85;;;9.50;99.90;;;;;;5057551;28;20080;-26
2022/12/20 01:23:33;;;;;;;5.78;2.97;;;9.50;99.90;;;;;;5056864;28;20049;-26
2022/12/20 01:26:00;;;;;;;5.13;3.03;;;9.50;99.90;;;;;;5040148;28;20131;-26
2022/12/20 01:28:27;;;;;;;5.18;2.10;;;9.60;99.90;;;;;;5056858;28;20191;-26
2022/12/20 01:30:52;;;;;;;5.20;2.80;;;9.70;99.90;;;;;;5039551;28;20102;-26
2022/12/20 01:33:18;;;;;;;8.90;3.40;;;9.60;99.90;;;;;;5056754;28;20124;-26
2022/12/20 01:35:58;;;;;;;4.55;2.25;;;9.60;99.90;;;;;;5056713;28;20049;-26
2022/12/20 01:38:24;;;;;;;5.90;2.65;;;9.60;99.90;;;;;;5057275;28;20188;-26
2022/12/20 01:40:50;;;;;;;3.75;2.33;;;9.50;99.90;;;;;;5057130;28;20106;-26
2022/12/20 01:43:17;;;;;;;6.03;2.67;;;9.60;99.90;;;;;;5056454;28;20123;-26
2022/12/20 01:45:43;;;;;;;4.93;2.17;;;9.50;99.90;;;;;;5056514;28;20060;-27
2022/12/20 01:48:11;;;;;;;6.60;2.70;;;9.50;99.90;;;;;;5038637;28;20403;-26
2022/12/20 01:50:37;;;;;;;6.75;2.70;;;9.60;99.90;;;;;;5057026;28;20151;-26
2022/12/20 01:53:04;;;;;;;4.45;2.67;;;9.50;99.90;;;;;;5056395;28;20124;-26
2022/12/20 01:55:31;;;;;;;3.40;2.00;;;9.50;99.90;;;;;;5056348;28;20106;-26
2022/12/20 01:58:10;;;;;;;5.78;2.58;;;9.50;99.90;;;;;;5056264;28;20049;-27
2022/12/20 02:00:36;;;;;;;7.93;3.20;;;9.50;99.90;;;;;;5038469;28;20049;-26
2022/12/20 02:03:08;;;;;;;7.05;2.38;;;9.50;99.90;;;;;;5056386;28;20048;-26
2022/12/20 02:05:43;;;;;;;3.60;2.25;;;9.50;99.90;;;;;;5038791;28;20045;-26
2022/12/20 02:08:12;;;;;;;5.05;2.50;;;9.40;99.90;;;;;;5056618;28;20048;-26
2022/12/20 02:10:41;;;;;;;5.93;2.72;;;9.40;99.90;;;;;;5038752;28;20037;-26
2022/12/20 02:13:15;;;;;;;5.72;2.67;;;9.40;99.90;;;;;;5055999;28;20390;-26
2022/12/20 02:15:56;;;;;;;3.33;2.08;;;9.40;99.90;;;;;;5037702;28;20506;-26
2022/12/20 02:18:28;;;;;;;4.45;2.10;;;9.40;99.90;;;;;;5055934;28;20114;-26
2022/12/20 02:21:12;;;;;;;3.70;2.10;;;9.30;99.90;;;;;;5057013;28;20098;-27
2022/12/20 02:23:46;;;;;;;3.47;2.10;;;9.30;99.90;;;;;;5056349;28;20060;-26
2022/12/20 02:26:47;;;;;;;5.57;2.47;;;9.40;99.90;;;;;;5055701;28;20049;-26
2022/12/20 02:29:22;;;;;;;3.83;2.25;;;9.40;99.90;;;;;;5056007;28;20045;-26
2022/12/20 02:31:56;;;;;;;6.20;2.65;;;9.40;99.90;;;;;;5055670;28;20110;-26
2022/12/20 02:34:25;;;;;;;3.22;2.22;;;9.40;99.90;;;;;;5055872;28;20053;-26
2022/12/20 02:36:51;;;;;;;6.60;2.80;;;9.40;99.90;;;;;;5055547;28;20392;-26
2022/12/20 02:39:17;;;;;;;4.00;2.22;;;9.30;99.90;;;;;;5055421;28;20041;-26
2022/12/20 02:41:49;;;;;;;2.78;1.90;;;9.40;99.90;;;;;;5055312;28;20118;-26
2022/12/20 02:47:06;;;;;;;3.20;2.00;;;9.30;99.90;;;;;;5055324;28;20423;-26
2022/12/20 02:49:37;;;;;;;3.97;1.58;;;9.30;99.90;;;;;;5037678;28;20499;-26
2022/12/20 02:52:05;;;;;;;6.10;2.95;;;9.20;99.90;;;;;;5055852;28;20437;-26
2022/12/20 02:54:32;;;;;;;5.65;2.60;;;9.20;99.90;;;;;;5055199;28;20099;-26
2022/12/20 02:57:08;;;;;;;5.68;3.05;;;9.10;99.90;;;;;;5037612;28;20132;-26
2022/12/20 02:59:55;;;;;;;5.40;2.90;;;9.00;99.90;;;;;;5021084;28;20099;-26
2022/12/20 03:02:23;;;;;;;4.13;2.55;;;9.00;99.90;;;;;;5037936;28;20118;-26
2022/12/20 03:04:50;;;;;;;6.75;2.22;;;9.00;99.90;;;;;;5055328;28;20107;-26
2022/12/20 03:07:16;;;;;;;4.68;2.45;;;9.00;99.90;;;;;;5054968;28;20045;-25
2022/12/20 03:09:43;;;;;;;4.22;2.55;;;8.90;99.90;;;;;;5055701;28;20404;-25
2022/12/20 03:12:11;;;;;;;8.30;3.83;;;8.90;99.90;;;;;;5036617;28;20057;-25
2022/12/20 03:14:40;;;;;;;5.10;2.55;;;8.80;99.90;;;;;;5037333;28;20041;-26
2022/12/20 03:17:06;;;;;;;5.03;3.40;;;8.90;99.90;;;;;;5054577;28;20119;-25
2022/12/20 03:19:32;;;;;;;4.88;2.92;;;8.80;99.90;;;;;;5020643;28;20061;-25
2022/12/20 03:21:58;;;;;;;4.68;2.85;;;8.90;99.90;;;;;;5036952;28;20102;-26
2022/12/20 03:24:24;;;;;;;6.63;3.17;;;8.90;99.90;;;;;;5036602;28;20041;-26
2022/12/20 03:26:50;;;;;;;6.03;3.25;;;8.90;99.90;;;;;;5054285;28;20506;-26
2022/12/20 03:29:16;;;;;;;10.05;3.72;;;8.90;99.90;;;;;;5054216;28;20084;-26
2022/12/20 03:31:42;;;;;;;6.88;3.58;;;8.90;99.90;;;;;;5037558;28;20049;-26
2022/12/20 03:34:07;;;;;;;4.57;2.50;;;8.90;99.90;;;;;;5054110;28;20044;-26
2022/12/20 03:36:33;;;;;;;7.72;3.50;;;8.90;99.90;;;;;;5020260;28;20061;-26
2022/12/20 03:38:59;;;;;;;7.70;2.83;;;9.00;99.90;;;;;;5054392;28;20143;-26
2022/12/20 03:41:26;;;;;;;6.93;2.88;;;9.00;99.90;;;;;;5054338;28;20394;-26
2022/12/20 03:43:52;;;;;;;5.80;2.38;;;9.00;99.90;;;;;;5054261;28;20385;-27
2022/12/20 03:46:17;;;;;;;7.43;3.50;;;9.10;99.90;;;;;;5036425;28;20041;-26
2022/12/20 03:48:43;;;;;;;8.40;4.45;;;9.10;99.90;;;;;;5054150;28;20051;-26
2022/12/20 03:51:10;;;;;;;5.43;3.75;;;9.00;99.90;;;;;;5036333;28;20110;-26
2022/12/20 03:53:35;;;;;;;6.25;3.53;;;9.00;99.90;;;;;;5054156;28;20493;-26
2022/12/20 03:56:01;;;;;;;6.75;3.50;;;9.00;99.90;;;;;;5054031;28;20050;-27
2022/12/20 03:58:27;;;;;;;5.45;3.78;;;9.10;99.90;;;;;;5036527;28;20106;-27
2022/12/20 04:00:52;;;;;;;8.13;3.25;;;9.10;99.90;;;;;;5053949;28;20136;-27
2022/12/20 04:03:18;;;;;;;6.38;3.58;;;9.10;99.90;;;;;;5053869;28;20040;-27
2022/12/20 04:05:44;;;;;;;5.38;3.53;;;9.10;99.90;;;;;;5053852;28;20118;-26
2022/12/20 04:08:10;;;;;;;5.90;2.53;;;9.20;99.90;;;;;;5053872;28;20109;-27
2022/12/20 04:11:14;;;;;;;8.60;3.92;;;9.20;99.90;;;;;;5054340;28;20136;-27
2022/12/20 04:13:21;;;;;;;6.70;2.65;;;9.10;99.90;;;;;;5053786;28;20502;-27
2022/12/20 04:15:47;;;;;;;5.60;2.97;;;9.20;99.90;;;;;;5053719;28;20049;-27
2022/12/20 04:18:13;;;;;;;6.38;3.15;;;9.30;99.90;;;;;;5019692;28;20114;-27
2022/12/20 04:20:38;;;;;;;4.80;3.08;;;9.30;99.90;;;;;;5019685;28;20044;-27
2022/12/20 04:23:04;;;;;;;6.72;3.22;;;9.40;99.90;;;;;;5053344;28;20052;-27
2022/12/20 04:25:30;;;;;;;4.53;2.97;;;9.40;99.90;;;;;;5053628;28;20049;-27
2022/12/20 04:27:56;;;;;;;8.02;3.53;;;9.50;99.90;;;;;;5003465;28;20053;-28
2022/12/20 04:30:22;;;;;;;3.47;2.33;;;9.50;99.90;;;;;;5036000;28;20209;-27
2022/12/20 04:32:47;;;;;;;4.97;2.58;;;9.60;99.90;;;;;;5053545;28;20049;-27
2022/12/20 04:35:13;;;;;;;9.02;2.80;;;9.60;99.90;;;;;;5053488;28;20044;-27
2022/12/20 04:37:39;;;;;;;4.80;3.10;;;9.60;99.90;;;;;;5053155;28;20045;-27
2022/12/20 04:40:06;;;;;;;7.13;2.47;;;9.60;99.90;;;;;;5053727;28;20083;-27
2022/12/20 04:42:31;;;;;;;4.00;2.78;;;9.70;99.90;;;;;;5053905;28;20052;-27
2022/12/20 04:44:57;;;;;;;4.10;2.78;;;9.70;99.90;;;;;;5035618;28;20136;-27
2022/12/20 04:47:23;;;;;;;6.10;3.03;;;9.60;99.90;;;;;;5035694;28;20045;-27
2022/12/20 04:49:49;;;;;;;6.03;3.33;;;9.70;99.90;;;;;;5053390;28;20048;-27
2022/12/20 04:54:59;;;;;;;8.35;3.47;;;9.70;99.90;;;;;;5035751;28;20053;-27
2022/12/20 04:57:25;;;;;;;5.78;3.03;;;9.70;99.90;;;;;;5053280;28;20052;-27
2022/12/20 04:59:51;;;;;;;4.88;3.00;;;9.80;99.90;;;;;;5053607;28;20549;-27
2022/12/20 05:02:17;;;;;;;4.60;2.72;;;9.80;99.90;;;;;;5053193;28;20045;-27
2022/12/20 05:04:42;;;;;;;4.45;2.70;;;9.80;99.90;;;;;;5035408;28;20051;-27
2022/12/20 05:07:08;;;;;;;5.70;3.33;;;9.70;99.90;;;;;;5035928;28;20044;-27
2022/12/20 05:09:34;;;;;;;5.22;2.97;;;9.70;99.90;;;;;;5053198;28;20045;-27
2022/12/20 05:11:59;;;;;;;7.18;3.45;;;9.70;99.90;;;;;;5036439;28;20045;-28
2022/12/20 05:14:25;;;;;;;7.20;3.47;;;9.80;99.90;;;;;;5036249;28;20049;-27
2022/12/20 05:16:51;;;;;;;7.07;3.42;;;9.80;99.90;;;;;;5052776;28;20053;-27
2022/12/20 05:19:17;;;;;;;5.38;3.28;;;9.80;99.90;;;;;;5018800;28;20049;-27
2022/12/20 05:27:11;;;;;;;5.88;3.08;;;9.90;99.90;;;;;;5053709;28;20056;-27
2022/12/20 05:29:37;;;;;;;5.07;3.42;;;9.90;99.90;;;;;;5035464;28;20053;-27
2022/12/20 05:32:03;;;;;;;5.75;2.53;;;9.90;99.90;;;;;;5052965;28;20124;-27
2022/12/20 05:34:29;;;;;;;8.43;3.33;;;10.00;99.90;;;;;;5053227;28;20045;-27
2022/12/20 05:36:55;;;;;;;5.47;3.13;;;9.90;99.90;;;;;;5056190;28;20107;-27
2022/12/20 05:39:21;;;;;;;7.93;3.78;;;9.90;99.90;;;;;;5056684;28;20057;-27
2022/12/20 05:41:47;;;;;;;6.07;3.10;;;9.90;99.90;;;;;;5056432;28;20479;-27
2022/12/20 05:44:12;;;;;;;5.43;2.70;;;9.90;99.90;;;;;;5056435;28;20082;-27
2022/12/20 05:46:38;;;;;;;4.05;2.25;;;9.90;99.90;;;;;;5056378;28;20049;-27
2022/12/20 05:49:04;;;;;;;7.68;3.67;;;10.00;99.90;;;;;;5056317;28;20052;-27
2022/12/20 05:51:30;;;;;;;5.47;2.67;;;10.00;99.90;;;;;;5056310;28;20045;-27
2022/12/20 05:53:55;;;;;;;4.07;3.05;;;9.90;99.90;;;;;;5056306;28;20051;-27
2022/12/20 05:56:21;;;;;;;5.30;2.45;;;9.90;99.90;;;;;;5056200;28;20041;-27
2022/12/20 05:58:47;;;;;;;4.53;2.22;;;9.90;99.90;;;;;;5056156;28;20045;-27
2022/12/20 06:01:13;;;;;;;5.07;1.98;;;9.90;99.90;;;;;;5039324;28;20060;-27
2022/12/20 06:03:39;;;;;;;5.55;3.05;;;9.90;99.90;;;;;;5055960;28;20041;-27
2022/12/20 06:06:05;;;;;;;5.97;2.47;;;9.90;99.90;;;;;;5056799;28;20394;-27
2022/12/20 06:08:31;;;;;;;4.50;2.40;;;9.90;99.90;;;;;;5056263;28;20052;-27
2022/12/20 06:10:57;;;;;;;5.63;2.65;;;9.90;99.90;;;;;;5055991;28;20609;-27
2022/12/20 06:13:22;;;;;;;5.88;2.97;;;10.00;99.90;;;;;;5038410;28;20498;-27
2022/12/20 06:15:48;;;;;;;3.97;2.13;;;10.00;99.90;;;;;;5056290;28;20131;-27
2022/12/20 06:18:14;;;;;;;6.28;3.78;;;9.90;99.90;;;;;;5055890;28;20076;-27
2022/12/20 06:20:39;;;;;;;5.60;2.70;;;9.90;99.90;;;;;;5055868;28;20471;-27
2022/12/20 06:23:06;;;;;;;3.25;2.20;;;9.90;99.90;;;;;;5056319;28;20077;-27
2022/12/20 06:25:32;;;;;;;4.80;2.58;;;9.80;99.90;;;;;;5055786;28;20068;-27
2022/12/20 06:27:58;;;;;;;6.85;3.92;;;9.90;99.90;;;;;;5056234;28;20059;-27
2022/12/20 06:30:24;;;;;;;5.47;2.92;;;9.90;99.90;;;;;;5055913;28;20127;-27
2022/12/20 06:32:49;;;;;;;5.75;2.78;;;9.90;99.90;;;;;;5055621;28;20048;-27
2022/12/20 06:35:15;;;;;;;5.75;2.53;;;9.90;99.90;;;;;;5055632;28;20045;-27
2022/12/20 06:37:41;;;;;;;7.82;3.17;;;10.00;99.90;;;;;;5055553;28;20043;-27
2022/12/20 06:40:10;;;;;;;5.22;2.50;;;10.00;99.90;;;;;;5055594;28;20372;-27
2022/12/20 06:42:36;;;;;;;4.47;2.60;;;9.90;99.90;;;;;;5037772;28;20045;-27
2022/12/20 06:45:02;;;;;;;7.65;2.40;;;10.00;99.90;;;;;;5055956;28;20082;-27
2022/12/20 06:47:28;;;;;;;4.80;2.78;;;10.00;99.90;;;;;;5055268;28;20096;-27
2022/12/20 06:49:53;;;;;;;5.40;2.50;;;10.00;99.90;;;;;;5037702;28;20084;-27
2022/12/20 06:52:19;;;;;;;4.03;2.38;;;10.00;99.90;;;;;;5055267;28;20080;-27
2022/12/20 06:54:45;;;;;;;5.78;2.78;;;10.00;99.90;;;;;;5055204;28;20048;-27
2022/12/20 06:57:11;;;;;;;5.00;2.40;;;10.10;99.90;;;;;;5055208;28;20049;-27
2022/12/20 06:59:37;;;;;;;6.65;2.63;;;10.10;99.90;;;;;;5037634;28;20048;-27
2022/12/20 07:02:03;;;;;;;5.43;2.70;;;10.10;99.90;;;;;;5054996;28;20049;-27
2022/12/20 07:04:28;;;;;;;3.58;2.42;;;10.10;99.90;;;;;;5055086;28;20053;-27
2022/12/20 07:06:55;;;;;;;4.43;3.67;;;10.10;99.90;;;;;;5055008;28;20183;-27
2022/12/20 07:09:21;;;;;;;4.13;2.70;;;10.20;99.90;;;;;;5037227;28;20127;-27
2022/12/20 07:11:48;;;;;;;4.15;2.67;;;10.10;99.90;;;;;;5055737;28;20076;-27
2022/12/20 07:14:14;;;;;;;5.45;2.78;;;10.10;99.90;;;;;;5054800;28;20438;-27
2022/12/20 07:16:42;;;;;;;5.85;3.47;;;10.00;99.90;;;;;;5036853;28;20110;-27
2022/12/20 07:19:13;;;;;;;5.90;2.97;;;10.00;99.90;;;;;;5054812;28;20446;-27
2022/12/20 07:21:39;;;;;;;3.45;2.70;;;10.00;99.90;;;;;;5055083;28;20045;-27
2022/12/20 07:24:05;;;;;;;5.70;3.10;;;10.00;99.90;;;;;;5054585;28;20514;-26
2022/12/20 07:26:31;;;;;;;5.80;3.17;;;10.00;99.90;;;;;;5054617;28;20052;-26
2022/12/20 07:28:57;;;;;;;8.13;4.50;;;9.90;99.90;;;;;;5054570;28;20059;-27
2022/12/20 07:31:23;;;;;;;5.75;4.18;;;9.90;99.90;;;;;;5054480;28;20064;-27
2022/12/20 07:33:49;;;;;;;6.40;4.05;;;9.90;99.90;;;;;;5036813;28;20040;-27
2022/12/20 07:36:14;;;;;;;5.72;4.13;;;9.90;99.90;;;;;;5054081;28;20114;-27
2022/12/20 07:38:41;;;;;;;5.20;4.72;;;9.90;99.90;;;;;;5055176;28;20045;-27
2022/12/20 07:41:18;;;;;;;5.95;4.63;;;9.90;99.90;;;;;;5054359;28;20055;-26
2022/12/20 07:43:44;;;;;;;4.60;3.47;;;9.90;99.90;;;;;;5054303;28;20048;-27
2022/12/20 07:46:15;;;;;;;9.02;5.78;;;9.90;99.90;;;;;;5037396;28;20044;-26
2022/12/20 07:48:43;;;;;;;8.60;6.72;;;9.90;99.90;;;;;;5055054;28;20107;-27
2022/12/20 07:51:14;;;;;;;10.68;6.88;;;9.80;99.90;;;;;;5054154;28;20045;-27
2022/12/20 07:53:49;;;;;;;10.32;6.90;;;9.70;99.90;;;;;;5037450;28;20052;-27
2022/12/20 07:56:17;;;;;;;13.70;7.45;;;9.70;99.90;;;;;;5054732;28;20045;-27
2022/12/20 07:58:43;;;;;;;10.60;8.10;;;9.70;99.90;;;;;;5053552;28;20057;-27
2022/12/20 08:01:11;;;;;;;10.05;7.13;;;9.70;99.90;;;;;;5054093;28;20438;-31
2022/12/20 08:03:49;;;;;;;8.13;5.70;;;9.80;99.90;;;;;;5053888;28;20102;-27
2022/12/20 08:06:16;;;;;;;11.63;6.38;;;9.80;99.90;;;;;;5054548;28;20048;-27
2022/12/20 08:08:52;;;;;;;9.27;6.68;;;9.90;99.90;;;;;;5036422;28;20093;-28
2022/12/20 08:11:21;;;;;;;8.63;7.00;;;9.90;99.90;;;;;;5054211;28;20048;-28
2022/12/20 08:13:48;;;;;;;12.40;6.80;;;9.90;99.90;;;;;;5053795;28;20045;-27
2022/12/20 08:16:14;;;;;;;8.85;5.90;;;9.90;99.90;;;;;;5053511;28;20092;-28
2022/12/20 08:18:40;;;;;;;9.10;6.45;;;10.00;99.90;;;;;;5035975;28;20071;-27
2022/12/20 08:21:06;;;;;;;8.23;6.07;;;10.00;99.90;;;;;;5053367;28;20049;-28
2022/12/20 08:23:32;;;;;;;7.57;5.15;;;9.90;99.90;;;;;;5054146;28;20120;-28
2022/12/20 08:26:00;;;;;;;8.05;5.60;;;10.10;99.90;;;;;;5054086;28;20478;-28
2022/12/20 08:28:26;;;;;;;5.97;4.20;;;10.10;99.90;;;;;;5054093;28;20053;-28
2022/12/20 08:30:52;;;;;;;6.60;4.40;;;10.10;99.90;;;;;;5053579;28;20155;-28
2022/12/20 08:33:18;;;;;;;7.30;3.92;;;10.10;99.90;;;;;;5053214;28;20477;-28
2022/12/20 08:35:44;;;;;;;8.18;4.35;;;10.10;99.90;;;;;;5053511;28;20127;-28
2022/12/20 08:38:10;;;;;;;5.40;3.63;;;10.20;99.90;;;;;;5035779;28;20129;-28
2022/12/20 08:40:35;;;;;;;5.35;3.53;;;10.20;99.90;;;;;;5035730;28;20407;-28
2022/12/20 08:43:01;;;;;;;7.43;4.00;;;10.30;99.90;;;;;;5036168;28;20352;-27
2022/12/20 08:45:27;;;;;;;5.45;2.90;;;10.30;99.90;;;;;;5053210;28;20045;-27
2022/12/20 08:47:53;;;;;;;6.55;3.90;;;10.30;99.90;;;;;;5035646;28;20078;-27
2022/12/20 08:50:19;;;;;;;5.22;3.42;;;10.30;99.90;;;;;;5019426;28;20053;-28
2022/12/20 08:52:45;;;;;;;4.55;2.90;;;10.40;99.90;;;;;;5019848;28;20056;-27
2022/12/20 08:55:11;;;;;;;5.93;3.00;;;10.40;99.90;;;;;;5019215;28;20399;-28
2022/12/20 08:57:37;;;;;;;4.20;2.72;;;10.40;99.90;;;;;;5035525;28;20072;-28
2022/12/20 09:00:04;;;;;;;7.13;3.05;;;10.40;99.90;;;;;;5053301;28;20095;-27
2022/12/20 09:02:30;;;;;;;5.40;2.55;;;10.40;99.90;;;;;;5053244;28;20052;-28
2022/12/20 09:04:56;;;;;;;5.43;2.97;;;10.30;99.90;;;;;;5053305;28;20053;-27
2022/12/20 09:07:22;;;;;;;4.38;2.60;;;10.40;99.90;;;;;;5053194;28;20456;-27
2022/12/20 09:09:47;;;;;;;4.40;2.78;;;10.30;99.90;;;;;;5053226;28;20041;-27
2022/12/20 09:12:13;;;;;;;4.70;3.05;;;10.40;99.90;;;;;;5039283;28;20410;-27
2022/12/20 09:14:39;;;;;;;4.32;2.47;;;10.40;99.90;;;;;;5057072;28;20045;-27
2022/12/20 09:17:05;;;;;;;7.05;3.15;;;10.40;99.90;;;;;;5056686;28;20502;-27
2022/12/20 09:19:31;;;;;;;5.35;2.80;;;10.40;99.90;;;;;;5057303;28;20053;-27
2022/12/20 09:21:57;;;;;;;6.40;3.00;;;10.50;99.90;;;;;;5057144;28;20493;-27
2022/12/20 09:24:22;;;;;;;3.80;2.00;;;10.50;99.90;;;;;;5056924;28;20049;-27
2022/12/20 09:26:48;;;;;;;5.40;2.75;;;10.50;99.90;;;;;;5056911;28;20059;-27
2022/12/20 09:29:14;;;;;;;12.00;2.67;;;10.60;99.90;;;;;;5056893;28;20098;-27
2022/12/20 09:31:40;;;;;;;7.82;2.75;;;10.60;99.90;;;;;;5056681;28;20057;-27
2022/12/20 09:34:06;;;;;;;4.18;1.98;;;10.60;99.90;;;;;;5056760;28;20037;-27
2022/12/20 09:36:31;;;;;;;4.10;2.53;;;10.60;99.90;;;;;;5056683;28;20045;-27
2022/12/20 09:38:57;;;;;;;5.05;2.50;;;10.60;99.90;;;;;;5038922;28;20045;-27
2022/12/20 09:41:39;;;;;;;4.95;2.22;;;10.70;99.90;;;;;;5023385;28;20364;-28
2022/12/20 09:44:34;;;;;;;3.67;2.25;;;10.70;99.90;;;;;;5056497;28;20037;-28
2022/12/20 09:47:09;;;;;;;3.40;1.98;;;10.80;99.90;;;;;;5039715;28;20064;-27
2022/12/20 09:49:40;;;;;;;2.97;1.77;;;10.80;99.90;;;;;;5057273;28;20045;-27
2022/12/20 09:52:31;;;;;;;5.15;2.47;;;10.80;99.90;;;;;;5039120;28;20128;-27
2022/12/20 09:55:30;;;;;;;4.57;2.08;;;10.90;99.90;;;;;;5056991;28;20045;-27
2022/12/20 09:58:30;;;;;;;4.97;2.00;;;10.90;99.90;;;;;;5038090;28;20049;-27
2022/12/20 10:00:56;;;;;;;4.00;1.73;;;10.90;99.90;;;;;;5018227;28;20052;-28
2022/12/20 10:03:29;;;;;;;4.35;2.30;;;10.90;99.90;;;;;;5056655;28;20114;-27
2022/12/20 10:06:01;;;;;;;4.20;2.10;;;10.90;99.90;;;;;;5056814;28;20467;-27
2022/12/20 10:08:57;;;;;;;5.00;2.30;;;10.80;99.90;;;;;;5056428;28;20460;-27
2022/12/20 10:12:07;;;;;;;6.18;2.17;;;10.80;99.90;;;;;;5056096;28;20057;-27
2022/12/20 10:14:47;;;;;;;3.33;1.70;;;10.70;99.90;;;;;;4977937;28;20057;-27
2022/12/20 10:17:22;;;;;;;3.47;2.00;;;10.70;99.90;;;;;;5055809;28;20507;-27
2022/12/20 10:19:53;;;;;;;5.18;2.20;;;10.70;99.90;;;;;;5038881;28;20056;-27
2022/12/20 10:22:29;;;;;;;3.22;1.80;;;10.70;99.90;;;;;;5056041;28;20048;-27
2022/12/20 10:25:12;;;;;;;11.55;2.35;;;10.60;99.90;;;;;;5055819;28;20110;-27
2022/12/20 10:27:42;;;;;;;3.78;2.20;;;10.60;99.90;;;;;;5039052;28;20091;-27
2022/12/20 10:30:16;;;;;;;5.68;2.20;;;10.60;99.90;;;;;;5056431;28;20045;-27
2022/12/20 10:32:45;;;;;;;3.53;2.20;;;10.60;99.90;;;;;;5037834;28;20053;-27
2022/12/20 10:35:13;;;;;;;4.53;2.05;;;10.70;99.90;;;;;;5056193;28;20052;-27
2022/12/20 10:38:12;;;;;;;4.00;1.98;;;10.70;99.90;;;;;;5055287;28;20399;-27
2022/12/20 10:40:42;;;;;;;4.03;1.85;;;10.70;99.90;;;;;;5055506;28;20052;-27
2022/12/20 10:43:17;;;;;;;3.88;1.80;;;10.70;99.90;;;;;;5055933;28;20041;-27
2022/12/20 10:45:55;;;;;;;3.47;1.90;;;10.80;99.90;;;;;;5056037;28;20099;-27
2022/12/20 10:48:32;;;;;;;5.55;2.38;;;10.80;99.90;;;;;;5055434;28;20501;-27
2022/12/20 10:51:03;;;;;;;3.50;1.63;;;10.80;99.90;;;;;;5055422;28;20132;-27
2022/12/20 10:53:31;;;;;;;6.05;3.20;;;10.70;99.90;;;;;;5055638;28;20044;-27
2022/12/20 10:56:17;;;;;;;3.53;2.17;;;10.70;99.90;;;;;;5036533;28;20099;-27
2022/12/20 10:58:55;;;;;;;5.18;2.70;;;10.70;99.90;;;;;;5019757;28;20079;-27
2022/12/20 11:01:24;;;;;;;3.42;1.83;;;10.60;99.90;;;;;;5037937;28;20049;-27
2022/12/20 11:03:57;;;;;;;4.28;1.88;;;10.60;99.90;;;;;;5036328;28;20057;-27
2022/12/20 11:06:25;;;;;;;;;;;10.60;99.90;;;;;;5056319;28;20446;-27
2022/12/20 11:08:52;;;;;;;4.70;2.53;;;10.60;99.90;;;;;;5037382;28;19928;-27
2022/12/20 11:11:20;;;;;;;6.70;2.80;;;10.60;99.90;;;;;;5036510;28;20049;-27
2022/12/20 11:13:47;;;;;;;3.10;2.03;;;10.50;99.90;;;;;;5017550;28;20068;-27
2022/12/20 11:16:50;;;;;;;6.95;2.70;;;10.50;99.90;;;;;;5034535;28;20045;-27
2022/12/20 11:19:19;;;;;;;5.88;2.53;;;10.40;99.90;;;;;;4940072;29;20082;-27
2022/12/20 11:22:26;;;;;;;7.18;3.03;;;10.50;99.90;;;;;;5020333;28;20550;-27
2022/12/20 11:25:10;;;;;;;7.38;2.47;;;10.50;99.90;;;;;;5016282;28;20103;-27
2022/12/20 11:27:58;;;;;;;7.43;2.40;;;10.50;99.90;;;;;;5034730;28;20063;-27
2022/12/20 11:30:56;;;;;;;3.75;2.47;;;10.50;99.90;;;;;;5034633;28;20049;-27
2022/12/20 11:33:50;;;;;;;4.32;2.60;;;10.60;99.90;;;;;;5034457;28;20052;-27
2022/12/20 11:36:43;;;;;;;6.95;3.00;;;10.60;99.90;;;;;;5034914;28;20419;-27
2022/12/20 11:39:39;;;;;;;5.43;2.28;;;10.50;99.90;;;;;;5035053;28;20095;-27
2022/12/20 11:42:41;;;;;;;6.35;2.10;;;10.50;99.90;;;;;;5044851;28;20041;-27
2022/12/20 11:45:48;;;;;;;4.63;2.53;;;10.50;99.90;;;;;;5054348;28;20049;-27
2022/12/20 11:48:43;;;;;;;9.00;2.60;;;10.50;99.90;;;;;;5026243;28;20088;-27
2022/12/20 11:51:33;;;;;;;4.82;2.40;;;10.50;99.90;;;;;;5054290;28;20055;-27
2022/12/20 11:54:33;;;;;;;6.20;2.92;;;10.50;99.90;;;;;;5034809;28;20048;-27
2022/12/20 11:57:05;;;;;;;4.97;2.50;;;10.50;99.90;;;;;;5029248;28;20088;-27
2022/12/20 11:59:48;;;;;;;4.95;2.63;;;10.50;99.90;;;;;;5034784;28;20041;-27
2022/12/20 12:02:24;;;;;;;4.68;2.88;;;10.50;99.90;;;;;;5017367;28;20488;-27
2022/12/20 12:05:03;;;;;;;4.25;2.65;;;10.50;99.90;;;;;;5033389;28;20419;-27
2022/12/20 12:07:32;;;;;;;5.10;2.63;;;10.40;99.90;;;;;;5036687;28;20049;-27
2022/12/20 12:10:15;;;;;;;4.28;3.00;;;10.40;99.90;;;;;;5053903;28;20403;-27
2022/12/20 12:13:00;;;;;;;5.32;2.95;;;10.40;99.90;;;;;;5053895;28;20041;-27
2022/12/20 12:15:46;;;;;;;4.43;2.67;;;10.40;99.90;;;;;;5054573;28;20059;-27
2022/12/20 12:18:27;;;;;;;4.50;3.20;;;10.40;99.90;;;;;;5052694;28;20064;-27
2022/12/20 12:21:09;;;;;;;7.63;3.42;;;10.40;99.90;;;;;;5052962;28;20049;-26
2022/12/20 12:24:02;;;;;;;8.10;3.38;;;10.30;99.90;;;;;;5053098;28;20037;-27
2022/12/20 12:26:34;;;;;;;6.55;3.90;;;10.30;99.90;;;;;;5053699;28;20080;-27
2022/12/20 12:29:07;;;;;;;6.57;3.17;;;10.20;99.90;;;;;;5053689;28;20055;-27
2022/12/20 12:31:54;;;;;;;;;;;10.10;99.90;;;;;;5054044;28;20053;-27
2022/12/20 12:34:31;;;;;;;4.65;3.00;;;10.10;99.90;;;;;;5035401;28;19928;-26
2022/12/20 12:37:35;;;;;;;8.30;4.45;;;10.10;99.90;;;;;;5017091;28;20357;-27
2022/12/20 12:40:25;;;;;;;4.72;3.28;;;10.10;99.90;;;;;;5033617;28;20065;-27
2022/12/20 12:43:06;;;;;;;7.28;5.07;;;10.10;99.90;;;;;;5016759;28;20056;-27
2022/12/20 12:45:36;;;;;;;10.27;5.50;;;10.10;99.90;;;;;;5013995;28;20052;-27
2022/12/20 12:48:10;;;;;;;6.32;4.85;;;10.10;99.90;;;;;;5060963;28;20045;-27
2022/12/20 12:50:41;;;;;;;7.70;4.95;;;10.00;99.90;;;;;;5060138;28;20053;-27
2022/12/20 12:53:16;;;;;;;7.28;5.63;;;10.00;99.90;;;;;;5042767;28;20049;-27
2022/12/20 12:55:47;;;;;;;8.68;4.53;;;10.00;99.90;;;;;;5042698;28;20491;-27
2022/12/20 12:58:22;;;;;;;7.50;4.53;;;10.00;99.90;;;;;;5059006;28;20504;-27
2022/12/20 13:00:50;;;;;;;10.13;6.75;;;10.10;99.90;;;;;;5060558;28;20131;-27
2022/12/20 13:03:36;;;;;;;8.38;6.18;;;10.10;99.90;;;;;;5041728;28;20084;-27
2022/12/20 13:06:24;;;;;;;9.30;6.13;;;10.10;99.90;;;;;;5060274;28;20037;-27
2022/12/20 13:08:59;;;;;;;9.82;6.65;;;10.10;99.90;;;;;;5059916;28;20506;-28
2022/12/20 13:11:55;;;;;;;6.95;6.10;;;10.10;99.90;;;;;;5041339;28;20486;-27
2022/12/20 13:14:22;;;;;;;7.53;4.80;;;10.20;99.90;;;;;;5041612;28;20056;-27
2022/12/20 13:16:50;;;;;;;6.10;4.70;;;10.20;99.90;;;;;;5041774;28;20064;-28
2022/12/20 13:19:37;;;;;;;9.63;6.90;;;10.20;99.90;;;;;;5042575;28;20395;-28
2022/12/20 13:22:11;;;;;;;13.02;7.05;;;10.20;99.90;;;;;;5059999;28;20066;-27